LFRI

La Roche-sur-Yon Airport

La Roche-sur-Yon/Les Ajoncs, France
METAR LFRI 200200Z AUTO 03006KT 4700 BR FEW009 10/09 Q1025
Observed Flight Rules
Oct-20 @ 02:00 UTC (13 minutes ago) Instrument Flight Rules
Wind Visibility Clouds Conditions
30° at 6 knots 4,699 meters
  • Few at 900' AGL
  • Mist
Temperatures Readings
Current 10°C / 50°F
Dewpoint 9°C / 48°F
Humidity 94%
Altimeter 30.27" Hg
Pressure 1025 hPa
Elevation 91
METAR LFRI 200200Z AUTO 03006KT 4700 BR FEW009 10/09 Q1025
Observed Flight Rules
Oct-20 @ 02:00 UTC
(13 minutes ago)
IFR
Wind Visibility
30° at 6 knots 4,699 meters
Clouds
  • Few at 900' AGL
Conditions
  • Mist
Temperature Dewpoint
10°C / 50°F 9°C / 48°F
Humidity Altimeter Pressure
94% 30.27" Hg 1025 hPa